PWSweather.com
Personal Weather Stations
Station Observations
BREAKEY01
Lévis, Breakeyville, QC G0S 1E1

LévisBreakeyville, QC G0S 1E1

Lat: 46.681, Lon: -71.224

Elevation: 328

Station Type: Davis Vantage Pro2

http://www.meteobreakey.webou.net/topic/index.php

Latest ConditionsUpdated 3:22:04 PM EDT Tuesday, Sep 16, 2014
Currently Today's Max Today's Min Today's Average
Temperature 62.2°F16.8°C 62.8°F17.1°C 50.2°F10.1°C 54.0°F12.2°C
Dew Point 46.8°F8.2°C 52.3°F11.3°C 46.8°F8.2°C 49.6°F9.8°C
Winds 8.1 mph W13.0 kmh W 10.1 mph WSW16.3 kmh WSW - 4.0 mph 6.4 kmh
Wind Gusts 8.9 mph14.3 kmh 15.0 mph24.1 kmh - -
Humidity 57% 95% 56% 86%
Pressure 29.86 in1011.2 mb 30.00 in1015.9 mb 29.86 in1011.2 mb -
Precipitation - 0.06 in1.5 mm - -
Hour Temp Dew Point Humidity Winds Wind Gusts Pressure Precip Precip Rate Daily Precip Total
03:22 PM 62.2°F16.8°C 46.8°F8.2°C 57% 8.1 mph W13.0 kmh W 8.9 mph14.3 kmh 29.86 in1011.2 mb 0.00 in0.0 mm 0.00 in/hr0.0 mm/hr 0.06 in1.5 mm
03:17 PM 62.4°F16.9°C 47.5°F8.6°C 58% 8.1 mph WNW13.0 kmh WNW 11.0 mph17.7 kmh 29.86 in1011.2 mb 0.00 in0.0 mm 0.00 in/hr0.0 mm/hr 0.06 in1.5 mm
03:12 PM 62.6°F17.0°C 46.8°F8.2°C 56% 8.1 mph NW13.0 kmh NW 10.1 mph16.3 kmh 29.86 in1011.2 mb 0.00 in0.0 mm 0.00 in/hr0.0 mm/hr 0.06 in1.5 mm
03:07 PM 62.8°F17.1°C 47.8°F8.8°C 58% 6.9 mph W11.1 kmh W 15.0 mph24.1 kmh 29.86 in1011.2 mb 0.00 in0.0 mm 0.00 in/hr0.0 mm/hr 0.06 in1.5 mm
03:02 PM 62.6°F17.0°C 48.0°F8.9°C 59% 6.0 mph WSW9.7 kmh WSW 11.0 mph17.7 kmh 29.86 in1011.2 mb 0.00 in0.0 mm 0.00 in/hr0.0 mm/hr 0.06 in1.5 mm
02:57 PM 62.4°F16.9°C 47.8°F8.8°C 59% 6.9 mph WSW11.1 kmh WSW 2.0 mph3.2 kmh 29.86 in1011.2 mb 0.00 in0.0 mm 0.00 in/hr0.0 mm/hr 0.06 in1.5 mm
02:52 PM 62.2°F16.8°C 48.2°F9.0°C 60% 6.9 mph WNW11.1 kmh WNW 10.1 mph16.3 kmh 29.86 in1011.2 mb 0.00 in0.0 mm 0.00 in/hr0.0 mm/hr 0.06 in1.5 mm
02:47 PM 62.2°F16.8°C 47.3°F8.5°C 58% 6.9 mph W11.1 kmh W 8.9 mph14.3 kmh 29.86 in1011.2 mb 0.00 in0.0 mm 0.00 in/hr0.0 mm/hr 0.06 in1.5 mm
02:42 PM 62.4°F16.9°C 48.7°F9.3°C 61% 8.1 mph W13.0 kmh W 6.0 mph9.7 kmh 29.86 in1011.2 mb 0.00 in0.0 mm 0.00 in/hr0.0 mm/hr 0.06 in1.5 mm
02:37 PM 62.4°F16.9°C 47.8°F8.8°C 59% 6.9 mph WNW11.1 kmh WNW 10.1 mph16.3 kmh 29.86 in1011.2 mb 0.00 in0.0 mm 0.00 in/hr0.0 mm/hr 0.06 in1.5 mm
02:32 PM 62.2°F16.8°C 48.2°F9.0°C 60% 6.9 mph WSW11.1 kmh WSW 6.0 mph9.7 kmh 29.86 in1011.2 mb 0.00 in0.0 mm 0.00 in/hr0.0 mm/hr 0.06 in1.5 mm
02:27 PM 62.1°F16.7°C 48.4°F9.1°C 61% 6.0 mph WSW9.7 kmh WSW 2.9 mph4.7 kmh 29.87 in1011.5 mb 0.00 in0.0 mm 0.00 in/hr0.0 mm/hr 0.06 in1.5 mm
02:22 PM 62.1°F16.7°C 49.3°F9.6°C 63% 4.9 mph W7.9 kmh W 8.1 mph13.0 kmh 29.87 in1011.5 mb 0.00 in0.0 mm 0.00 in/hr0.0 mm/hr 0.06 in1.5 mm
02:17 PM 61.5°F16.4°C 50.0°F10.0°C 66% 6.9 mph W11.1 kmh W 8.9 mph14.3 kmh 29.87 in1011.5 mb 0.00 in0.0 mm 0.00 in/hr0.0 mm/hr 0.06 in1.5 mm
02:12 PM 61.2°F16.2°C 50.2°F10.1°C 67% 8.1 mph WNW13.0 kmh WNW 8.1 mph13.0 kmh 29.87 in1011.5 mb 0.00 in0.0 mm 0.00 in/hr0.0 mm/hr 0.06 in1.5 mm
02:07 PM 60.8°F16.0°C 48.9°F9.4°C 65% 8.1 mph WSW13.0 kmh WSW 8.1 mph13.0 kmh 29.88 in1011.9 mb 0.00 in0.0 mm 0.00 in/hr0.0 mm/hr 0.06 in1.5 mm
02:02 PM 61.3°F16.3°C 49.5°F9.7°C 65% 6.9 mph WSW11.1 kmh WSW 4.0 mph6.4 kmh 29.88 in1011.9 mb 0.00 in0.0 mm 0.00 in/hr0.0 mm/hr 0.06 in1.5 mm
01:57 PM 61.3°F16.3°C 49.1°F9.5°C 64% 6.0 mph SW9.7 kmh SW 6.9 mph11.1 kmh 29.88 in1011.9 mb 0.00 in0.0 mm 0.00 in/hr0.0 mm/hr 0.06 in1.5 mm
01:52 PM 61.0°F16.1°C 49.1°F9.5°C 65% 6.0 mph WNW9.7 kmh WNW 2.0 mph3.2 kmh 29.88 in1011.9 mb 0.00 in0.0 mm 0.00 in/hr0.0 mm/hr 0.06 in1.5 mm
01:47 PM 61.0°F16.1°C 49.1°F9.5°C 65% 6.0 mph WSW9.7 kmh WSW 2.0 mph3.2 kmh 29.88 in1011.9 mb 0.00 in0.0 mm 0.00 in/hr0.0 mm/hr 0.06 in1.5 mm
01:42 PM 61.2°F16.2°C 49.6°F9.8°C 66% 4.9 mph W7.9 kmh W 8.1 mph13.0 kmh 29.89 in1012.2 mb 0.00 in0.0 mm 0.00 in/hr0.0 mm/hr 0.06 in1.5 mm
01:37 PM 61.2°F16.2°C 50.2°F10.1°C 67% 4.9 mph SW7.9 kmh SW 6.0 mph9.7 kmh 29.89 in1012.2 mb 0.00 in0.0 mm 0.00 in/hr0.0 mm/hr 0.06 in1.5 mm
01:32 PM 61.2°F16.2°C 49.3°F9.6°C 65% 6.0 mph WSW9.7 kmh WSW 4.0 mph6.4 kmh 29.89 in1012.2 mb 0.00 in0.0 mm 0.00 in/hr0.0 mm/hr 0.06 in1.5 mm
01:27 PM 61.2°F16.2°C 50.2°F10.1°C 67% 6.0 mph W9.7 kmh W 8.1 mph13.0 kmh 29.89 in1012.2 mb 0.00 in0.0 mm 0.00 in/hr0.0 mm/hr 0.06 in1.5 mm
01:22 PM 60.6°F15.9°C 50.0°F10.0°C 68% 6.0 mph WSW9.7 kmh WSW 12.1 mph19.5 kmh 29.90 in1012.5 mb 0.00 in0.0 mm 0.00 in/hr0.0 mm/hr 0.06 in1.5 mm
01:17 PM 60.4°F15.8°C 49.8°F9.9°C 68% 8.1 mph W13.0 kmh W 6.0 mph9.7 kmh 29.89 in1012.2 mb 0.00 in0.0 mm 0.00 in/hr0.0 mm/hr 0.06 in1.5 mm
01:12 PM 60.6°F15.9°C 49.3°F9.6°C 66% 10.1 mph WSW16.3 kmh WSW 4.0 mph6.4 kmh 29.90 in1012.5 mb 0.00 in0.0 mm 0.00 in/hr0.0 mm/hr 0.06 in1.5 mm
01:07 PM 60.6°F15.9°C 49.3°F9.6°C 66% 8.1 mph WNW13.0 kmh WNW 4.9 mph7.9 kmh 29.90 in1012.5 mb 0.00 in0.0 mm 0.00 in/hr0.0 mm/hr 0.06 in1.5 mm
01:02 PM 60.8°F16.0°C 49.8°F9.9°C 67% 6.0 mph NW9.7 kmh NW 2.9 mph4.7 kmh 29.90 in1012.5 mb 0.00 in0.0 mm 0.00 in/hr0.0 mm/hr 0.06 in1.5 mm
12:57 PM 60.4°F15.8°C 50.5°F10.3°C 70% 6.0 mph NW9.7 kmh NW 2.0 mph3.2 kmh 29.90 in1012.5 mb 0.00 in0.0 mm 0.00 in/hr0.0 mm/hr 0.06 in1.5 mm
12:52 PM 59.7°F15.4°C 50.7°F10.4°C 72% 6.0 mph W9.7 kmh W 8.1 mph13.0 kmh 29.91 in1012.9 mb 0.00 in0.0 mm 0.00 in/hr0.0 mm/hr 0.06 in1.5 mm
12:47 PM 59.0°F15.0°C 50.0°F10.0°C 72% 6.0 mph SW9.7 kmh SW 4.9 mph7.9 kmh 29.91 in1012.9 mb 0.00 in0.0 mm 0.00 in/hr0.0 mm/hr 0.06 in1.5 mm
12:42 PM 59.2°F15.1°C 49.1°F9.5°C 69% 6.9 mph NW11.1 kmh NW 2.9 mph4.7 kmh 29.91 in1012.9 mb 0.00 in0.0 mm 0.00 in/hr0.0 mm/hr 0.06 in1.5 mm
12:37 PM 59.4°F15.2°C 49.6°F9.8°C 70% 6.0 mph WSW9.7 kmh WSW 2.9 mph4.7 kmh 29.91 in1012.9 mb 0.00 in0.0 mm 0.00 in/hr0.0 mm/hr 0.06 in1.5 mm
12:32 PM 59.2°F15.1°C 50.2°F10.1°C 72% 4.9 mph WSW7.9 kmh WSW 4.0 mph6.4 kmh 29.91 in1012.9 mb 0.00 in0.0 mm 0.00 in/hr0.0 mm/hr 0.06 in1.5 mm
12:27 PM 59.0°F15.0°C 49.6°F9.8°C 71% 4.9 mph WSW7.9 kmh WSW 4.0 mph6.4 kmh 29.91 in1012.9 mb 0.00 in0.0 mm 0.00 in/hr0.0 mm/hr 0.06 in1.5 mm
12:22 PM 58.8°F14.9°C 51.3°F10.7°C 76% 4.0 mph NW6.4 kmh NW 8.9 mph14.3 kmh 29.91 in1012.9 mb 0.00 in0.0 mm 0.00 in/hr0.0 mm/hr 0.06 in1.5 mm
12:17 PM 58.5°F14.7°C 50.2°F10.1°C 74% 4.9 mph WSW7.9 kmh WSW 0.9 mph1.4 kmh 29.91 in1012.9 mb 0.00 in0.0 mm 0.00 in/hr0.0 mm/hr 0.06 in1.5 mm
12:12 PM 58.3°F14.6°C 50.0°F10.0°C 74% 4.0 mph W6.4 kmh W 4.0 mph6.4 kmh 29.91 in1012.9 mb 0.00 in0.0 mm 0.00 in/hr0.0 mm/hr 0.06 in1.5 mm
12:07 PM 57.7°F14.3°C 50.9°F10.5°C 78% 4.0 mph WNW6.4 kmh WNW 2.9 mph4.7 kmh 29.91 in1012.9 mb 0.00 in0.0 mm 0.00 in/hr0.0 mm/hr 0.06 in1.5 mm
12:02 PM 57.6°F14.2°C 50.4°F10.2°C 77% 4.0 mph W6.4 kmh W 2.9 mph4.7 kmh 29.91 in1012.9 mb 0.00 in0.0 mm 0.00 in/hr0.0 mm/hr 0.06 in1.5 mm
11:57 AM 57.4°F14.1°C 50.5°F10.3°C 78% 4.0 mph WNW6.4 kmh WNW 2.0 mph3.2 kmh 29.91 in1012.9 mb 0.00 in0.0 mm 0.00 in/hr0.0 mm/hr 0.06 in1.5 mm
11:52 AM 57.0°F13.9°C 50.2°F10.1°C 78% 4.0 mph WNW6.4 kmh WNW 6.9 mph11.1 kmh 29.91 in1012.9 mb 0.00 in0.0 mm 0.00 in/hr0.0 mm/hr 0.06 in1.5 mm
11:47 AM 57.2°F14.0°C 50.7°F10.4°C 79% 2.9 mph WNW4.7 kmh WNW 2.9 mph4.7 kmh 29.92 in1013.2 mb 0.00 in0.0 mm 0.00 in/hr0.0 mm/hr 0.06 in1.5 mm
11:42 AM 57.2°F14.0°C 51.1°F10.6°C 80% 4.0 mph W6.4 kmh W 6.0 mph9.7 kmh 29.92 in1013.2 mb 0.00 in0.0 mm 0.00 in/hr0.0 mm/hr 0.06 in1.5 mm
11:37 AM 57.2°F14.0°C 50.4°F10.2°C 78% 4.0 mph W6.4 kmh W 6.9 mph11.1 kmh 29.92 in1013.2 mb 0.00 in0.0 mm 0.00 in/hr0.0 mm/hr 0.06 in1.5 mm
11:32 AM 57.6°F14.2°C 50.7°F10.4°C 78% 2.9 mph WSW4.7 kmh WSW 4.0 mph6.4 kmh 29.92 in1013.2 mb 0.00 in0.0 mm 0.00 in/hr0.0 mm/hr 0.06 in1.5 mm
11:27 AM 57.6°F14.2°C 51.1°F10.6°C 79% 2.0 mph W3.2 kmh W 2.0 mph3.2 kmh 29.93 in1013.5 mb 0.00 in0.0 mm 0.00 in/hr0.0 mm/hr 0.06 in1.5 mm
11:22 AM 57.2°F14.0°C 52.3°F11.3°C 84% 2.9 mph WSW4.7 kmh WSW 6.9 mph11.1 kmh 29.92 in1013.2 mb 0.00 in0.0 mm 0.00 in/hr0.0 mm/hr 0.06 in1.5 mm
11:17 AM 56.3°F13.5°C 52.2°F11.2°C 86% 4.9 mph WNW7.9 kmh WNW 4.0 mph6.4 kmh 29.92 in1013.2 mb 0.00 in0.0 mm 0.00 in/hr0.0 mm/hr 0.06 in1.5 mm
11:12 AM 55.4°F13.0°C 50.7°F10.4°C 84% 4.9 mph SW7.9 kmh SW 6.9 mph11.1 kmh 29.93 in1013.5 mb 0.00 in0.0 mm 0.00 in/hr0.0 mm/hr 0.06 in1.5 mm
11:07 AM 55.0°F12.8°C 50.5°F10.3°C 85% 4.0 mph WSW6.4 kmh WSW 0.9 mph1.4 kmh 29.93 in1013.5 mb 0.00 in0.0 mm 0.00 in/hr0.0 mm/hr 0.06 in1.5 mm
11:02 AM 54.9°F12.7°C 51.1°F10.6°C 87% 4.0 mph W6.4 kmh W 4.0 mph6.4 kmh 29.94 in1013.9 mb 0.00 in0.0 mm 0.00 in/hr0.0 mm/hr 0.06 in1.5 mm
10:57 AM 54.5°F12.5°C 50.4°F10.2°C 86% 4.0 mph WSW6.4 kmh WSW -- 29.94 in1013.9 mb 0.00 in0.0 mm 0.00 in/hr0.0 mm/hr 0.06 in1.5 mm
10:52 AM 54.3°F12.4°C 50.9°F10.5°C 88% 2.9 mph NW4.7 kmh NW 2.9 mph4.7 kmh 29.94 in1013.9 mb 0.00 in0.0 mm 0.00 in/hr0.0 mm/hr 0.06 in1.5 mm
10:47 AM 54.1°F12.3°C 50.7°F10.4°C 88% 2.9 mph NW4.7 kmh NW 2.9 mph4.7 kmh 29.94 in1013.9 mb 0.00 in0.0 mm 0.00 in/hr0.0 mm/hr 0.06 in1.5 mm
10:42 AM 54.1°F12.3°C 50.7°F10.4°C 88% 2.0 mph W3.2 kmh W 2.9 mph4.7 kmh 29.94 in1013.9 mb 0.00 in0.0 mm 0.00 in/hr0.0 mm/hr 0.06 in1.5 mm
10:37 AM 54.1°F12.3°C 50.7°F10.4°C 88% 0.9 mph NW1.4 kmh NW 2.0 mph3.2 kmh 29.94 in1013.9 mb 0.00 in0.0 mm 0.00 in/hr0.0 mm/hr 0.06 in1.5 mm
10:32 AM 54.3°F12.4°C 50.5°F10.3°C 87% 2.0 mph NW3.2 kmh NW -- 29.94 in1013.9 mb 0.00 in0.0 mm 0.00 in/hr0.0 mm/hr 0.06 in1.5 mm
10:27 AM 54.7°F12.6°C 50.9°F10.5°C 87% 2.0 mph W3.2 kmh W 0.9 mph1.4 kmh 29.94 in1013.9 mb 0.00 in0.0 mm 0.00 in/hr0.0 mm/hr 0.06 in1.5 mm
10:22 AM 54.9°F12.7°C 51.1°F10.6°C 87% 2.9 mph W4.7 kmh W 6.9 mph11.1 kmh 29.94 in1013.9 mb 0.00 in0.0 mm 0.00 in/hr0.0 mm/hr 0.06 in1.5 mm
10:17 AM 55.0°F12.8°C 51.6°F10.9°C 88% 2.9 mph WNW4.7 kmh WNW 4.0 mph6.4 kmh 29.94 in1013.9 mb 0.00 in0.0 mm 0.00 in/hr0.0 mm/hr 0.06 in1.5 mm
10:12 AM 55.0°F12.8°C 51.6°F10.9°C 88% 4.0 mph SW6.4 kmh SW 4.0 mph6.4 kmh 29.94 in1013.9 mb 0.00 in0.0 mm 0.00 in/hr0.0 mm/hr 0.06 in1.5 mm
10:07 AM 55.0°F12.8°C 51.6°F10.9°C 88% 4.0 mph W6.4 kmh W 6.0 mph9.7 kmh 29.94 in1013.9 mb 0.00 in0.0 mm 0.00 in/hr0.0 mm/hr 0.06 in1.5 mm
10:02 AM 55.0°F12.8°C 51.8°F11.0°C 89% 4.0 mph W6.4 kmh W 4.0 mph6.4 kmh 29.94 in1013.9 mb 0.00 in0.0 mm 0.00 in/hr0.0 mm/hr 0.06 in1.5 mm
09:57 AM 54.9°F12.7°C 52.0°F11.1°C 90% 4.0 mph W6.4 kmh W 13.0 mph20.9 kmh 29.95 in1014.2 mb 0.00 in0.0 mm 0.00 in/hr0.0 mm/hr 0.06 in1.5 mm
09:52 AM 54.7°F12.6°C 52.2°F11.2°C 91% 2.9 mph W4.7 kmh W 0.9 mph1.4 kmh 29.95 in1014.2 mb 0.00 in0.0 mm 0.00 in/hr0.0 mm/hr 0.06 in1.5 mm
09:47 AM 54.5°F12.5°C 51.6°F10.9°C 90% 2.9 mph WSW4.7 kmh WSW 0.9 mph1.4 kmh 29.94 in1013.9 mb 0.00 in0.0 mm 0.00 in/hr0.0 mm/hr 0.06 in1.5 mm
09:42 AM 54.3°F12.4°C 51.8°F11.0°C 91% 2.9 mph SW4.7 kmh SW 2.9 mph4.7 kmh 29.95 in1014.2 mb 0.00 in0.0 mm 0.00 in/hr0.0 mm/hr 0.06 in1.5 mm
09:37 AM 54.0°F12.2°C 51.6°F10.9°C 92% 4.0 mph W6.4 kmh W 8.1 mph13.0 kmh 29.95 in1014.2 mb 0.00 in0.0 mm 0.00 in/hr0.0 mm/hr 0.06 in1.5 mm
09:32 AM 53.6°F12.0°C 51.3°F10.7°C 92% 4.0 mph WNW6.4 kmh WNW 4.0 mph6.4 kmh 29.95 in1014.2 mb 0.00 in0.0 mm 0.00 in/hr0.0 mm/hr 0.06 in1.5 mm
09:27 AM 53.4°F11.9°C 51.1°F10.6°C 92% 4.0 mph W6.4 kmh W 6.9 mph11.1 kmh 29.95 in1014.2 mb 0.00 in0.0 mm 0.00 in/hr0.0 mm/hr 0.06 in1.5 mm
09:22 AM 53.2°F11.8°C 51.3°F10.7°C 93% 4.0 mph WSW6.4 kmh WSW 2.9 mph4.7 kmh 29.95 in1014.2 mb 0.00 in0.0 mm 0.00 in/hr0.0 mm/hr 0.06 in1.5 mm
09:17 AM 53.2°F11.8°C 51.3°F10.7°C 93% 2.9 mph W4.7 kmh W 2.9 mph4.7 kmh 29.96 in1014.6 mb 0.00 in0.0 mm 0.00 in/hr0.0 mm/hr 0.06 in1.5 mm
09:12 AM 53.1°F11.7°C 51.4°F10.8°C 94% 2.0 mph W3.2 kmh W 2.9 mph4.7 kmh 29.96 in1014.6 mb 0.00 in0.0 mm 0.00 in/hr0.0 mm/hr 0.06 in1.5 mm
09:07 AM 53.1°F11.7°C 51.4°F10.8°C 94% 2.9 mph WSW4.7 kmh WSW 2.0 mph3.2 kmh 29.96 in1014.6 mb 0.00 in0.0 mm 0.00 in/hr0.0 mm/hr 0.06 in1.5 mm
09:02 AM 52.9°F11.6°C 51.3°F10.7°C 94% 4.0 mph WNW6.4 kmh WNW 2.0 mph3.2 kmh 29.95 in1014.2 mb 0.00 in0.0 mm 0.00 in/hr0.0 mm/hr 0.06 in1.5 mm
08:57 AM 52.9°F11.6°C 51.3°F10.7°C 94% 2.9 mph WSW4.7 kmh WSW 2.9 mph4.7 kmh 29.96 in1014.6 mb 0.00 in0.0 mm 0.00 in/hr0.0 mm/hr 0.06 in1.5 mm
08:52 AM 52.9°F11.6°C 51.3°F10.7°C 94% 4.0 mph W6.4 kmh W 4.0 mph6.4 kmh 29.96 in1014.6 mb 0.00 in0.0 mm 0.00 in/hr0.0 mm/hr 0.06 in1.5 mm
08:47 AM 52.7°F11.5°C 51.1°F10.6°C 94% 4.0 mph WSW6.4 kmh WSW 2.0 mph3.2 kmh 29.96 in1014.6 mb 0.00 in0.0 mm 0.00 in/hr0.0 mm/hr 0.06 in1.5 mm
08:42 AM 52.7°F11.5°C 51.3°F10.7°C 95% 4.0 mph W6.4 kmh W 2.0 mph3.2 kmh 29.96 in1014.6 mb 0.00 in0.0 mm 0.00 in/hr0.0 mm/hr 0.06 in1.5 mm
08:37 AM 52.5°F11.4°C 51.1°F10.6°C 95% 2.9 mph SW4.7 kmh SW 2.9 mph4.7 kmh 29.96 in1014.6 mb 0.00 in0.0 mm 0.00 in/hr0.0 mm/hr 0.06 in1.5 mm
08:32 AM 52.5°F11.4°C 51.1°F10.6°C 95% 4.0 mph WSW6.4 kmh WSW 0.9 mph1.4 kmh 29.95 in1014.2 mb 0.00 in0.0 mm 0.00 in/hr0.0 mm/hr 0.06 in1.5 mm
08:27 AM 52.3°F11.3°C 50.9°F10.5°C 95% 4.9 mph WSW7.9 kmh WSW 4.0 mph6.4 kmh 29.95 in1014.2 mb 0.00 in0.0 mm 0.00 in/hr0.0 mm/hr 0.06 in1.5 mm
08:22 AM 52.2°F11.2°C 50.7°F10.4°C 95% 4.0 mph WSW6.4 kmh WSW 4.9 mph7.9 kmh 29.96 in1014.6 mb 0.00 in0.0 mm 0.00 in/hr0.0 mm/hr 0.06 in1.5 mm
08:17 AM 52.2°F11.2°C 50.7°F10.4°C 95% 4.0 mph WSW6.4 kmh WSW 10.1 mph16.3 kmh 29.95 in1014.2 mb 0.00 in0.0 mm 0.00 in/hr0.0 mm/hr 0.06 in1.5 mm
08:12 AM 52.0°F11.1°C 50.5°F10.3°C 95% 4.0 mph WSW6.4 kmh WSW 8.1 mph13.0 kmh 29.96 in1014.6 mb 0.00 in0.0 mm 0.00 in/hr0.0 mm/hr 0.06 in1.5 mm
08:07 AM 52.0°F11.1°C 50.5°F10.3°C 95% 4.9 mph SW7.9 kmh SW 4.0 mph6.4 kmh 29.96 in1014.6 mb 0.00 in0.0 mm 0.00 in/hr0.0 mm/hr 0.06 in1.5 mm
08:02 AM 52.0°F11.1°C 50.5°F10.3°C 95% 4.9 mph SW7.9 kmh SW 2.9 mph4.7 kmh 29.96 in1014.6 mb 0.00 in0.0 mm 0.00 in/hr0.0 mm/hr 0.06 in1.5 mm
07:57 AM 52.0°F11.1°C 50.5°F10.3°C 95% 4.9 mph WSW7.9 kmh WSW 6.0 mph9.7 kmh 29.96 in1014.6 mb 0.00 in0.0 mm 0.00 in/hr0.0 mm/hr 0.06 in1.5 mm
07:52 AM 51.8°F11.0°C 50.4°F10.2°C 95% 4.9 mph WSW7.9 kmh WSW 4.0 mph6.4 kmh 29.96 in1014.6 mb 0.00 in0.0 mm 0.00 in/hr0.0 mm/hr 0.06 in1.5 mm
07:47 AM 51.8°F11.0°C 50.4°F10.2°C 95% 4.0 mph SW6.4 kmh SW 10.1 mph16.3 kmh 29.96 in1014.6 mb 0.00 in0.0 mm 0.00 in/hr0.0 mm/hr 0.06 in1.5 mm
07:42 AM 51.6°F10.9°C 50.2°F10.1°C 95% 4.0 mph WSW6.4 kmh WSW 4.0 mph6.4 kmh 29.96 in1014.6 mb 0.00 in0.0 mm 0.00 in/hr0.0 mm/hr 0.06 in1.5 mm
07:37 AM 51.6°F10.9°C 50.2°F10.1°C 95% 4.0 mph WSW6.4 kmh WSW 6.9 mph11.1 kmh 29.96 in1014.6 mb 0.00 in0.0 mm 0.00 in/hr0.0 mm/hr 0.06 in1.5 mm
07:32 AM 51.6°F10.9°C 50.2°F10.1°C 95% 4.0 mph WSW6.4 kmh WSW 2.9 mph4.7 kmh 29.96 in1014.6 mb 0.00 in0.0 mm 0.00 in/hr0.0 mm/hr 0.06 in1.5 mm
07:27 AM 51.6°F10.9°C 50.2°F10.1°C 95% 4.9 mph WSW7.9 kmh WSW 2.9 mph4.7 kmh 29.96 in1014.6 mb 0.00 in0.0 mm 0.00 in/hr0.0 mm/hr 0.06 in1.5 mm
07:22 AM 51.4°F10.8°C 50.0°F10.0°C 95% 4.9 mph W7.9 kmh W 6.9 mph11.1 kmh 29.96 in1014.6 mb 0.00 in0.0 mm 0.00 in/hr0.0 mm/hr 0.06 in1.5 mm
07:17 AM 51.4°F10.8°C 50.0°F10.0°C 95% 4.9 mph W7.9 kmh W 2.0 mph3.2 kmh 29.95 in1014.2 mb 0.00 in0.0 mm 0.00 in/hr0.0 mm/hr 0.06 in1.5 mm
07:12 AM 51.4°F10.8°C 50.0°F10.0°C 95% 4.9 mph W7.9 kmh W 6.9 mph11.1 kmh 29.95 in1014.2 mb 0.00 in0.0 mm 0.00 in/hr0.0 mm/hr 0.06 in1.5 mm
07:07 AM 51.4°F10.8°C 50.0°F10.0°C 95% 4.0 mph WSW6.4 kmh WSW 8.1 mph13.0 kmh 29.95 in1014.2 mb 0.00 in0.0 mm 0.00 in/hr0.0 mm/hr 0.06 in1.5 mm
07:02 AM 51.4°F10.8°C 50.0°F10.0°C 95% 4.0 mph WSW6.4 kmh WSW 2.9 mph4.7 kmh 29.94 in1013.9 mb 0.00 in0.0 mm 0.00 in/hr0.0 mm/hr 0.06 in1.5 mm
06:57 AM 51.4°F10.8°C 50.0°F10.0°C 95% 4.0 mph WSW6.4 kmh WSW 4.9 mph7.9 kmh 29.94 in1013.9 mb 0.00 in0.0 mm 0.00 in/hr0.0 mm/hr 0.06 in1.5 mm
06:52 AM 51.3°F10.7°C 49.8°F9.9°C 95% 4.0 mph W6.4 kmh W 6.0 mph9.7 kmh 29.94 in1013.9 mb 0.00 in0.0 mm 0.00 in/hr0.0 mm/hr 0.06 in1.5 mm
06:47 AM 51.4°F10.8°C 50.0°F10.0°C 95% 4.0 mph WSW6.4 kmh WSW 4.0 mph6.4 kmh 29.94 in1013.9 mb 0.00 in0.0 mm 0.00 in/hr0.0 mm/hr 0.06 in1.5 mm
06:42 AM 51.3°F10.7°C 49.8°F9.9°C 95% 4.0 mph SW6.4 kmh SW 4.9 mph7.9 kmh 29.94 in1013.9 mb 0.00 in0.0 mm 0.00 in/hr0.0 mm/hr 0.06 in1.5 mm
06:37 AM 51.4°F10.8°C 50.0°F10.0°C 95% 4.9 mph SW7.9 kmh SW 4.0 mph6.4 kmh 29.94 in1013.9 mb 0.00 in0.0 mm 0.00 in/hr0.0 mm/hr 0.06 in1.5 mm
06:32 AM 51.4°F10.8°C 50.0°F10.0°C 95% 4.0 mph WSW6.4 kmh WSW 0.9 mph1.4 kmh 29.95 in1014.2 mb 0.00 in0.0 mm 0.00 in/hr0.0 mm/hr 0.06 in1.5 mm
06:27 AM 51.4°F10.8°C 50.0°F10.0°C 95% 4.0 mph WSW6.4 kmh WSW 8.1 mph13.0 kmh 29.95 in1014.2 mb 0.00 in0.0 mm 0.00 in/hr0.0 mm/hr 0.06 in1.5 mm
06:22 AM 51.4°F10.8°C 50.0°F10.0°C 95% 4.9 mph WSW7.9 kmh WSW 0.9 mph1.4 kmh 29.95 in1014.2 mb 0.00 in0.0 mm 0.00 in/hr0.0 mm/hr 0.06 in1.5 mm
06:17 AM 51.3°F10.7°C 49.8°F9.9°C 95% 4.9 mph WSW7.9 kmh WSW 6.9 mph11.1 kmh 29.95 in1014.2 mb 0.00 in0.0 mm 0.00 in/hr0.0 mm/hr 0.06 in1.5 mm
06:12 AM 51.3°F10.7°C 49.8°F9.9°C 95% 4.9 mph WSW7.9 kmh WSW 4.9 mph7.9 kmh 29.95 in1014.2 mb 0.00 in0.0 mm 0.00 in/hr0.0 mm/hr 0.06 in1.5 mm
06:07 AM 51.3°F10.7°C 49.8°F9.9°C 95% 4.9 mph WSW7.9 kmh WSW 12.1 mph19.5 kmh 29.95 in1014.2 mb 0.00 in0.0 mm 0.00 in/hr0.0 mm/hr 0.06 in1.5 mm
06:02 AM 51.3°F10.7°C 49.8°F9.9°C 95% 4.9 mph WSW7.9 kmh WSW 2.0 mph3.2 kmh 29.95 in1014.2 mb 0.00 in0.0 mm 0.00 in/hr0.0 mm/hr 0.06 in1.5 mm
05:57 AM 51.3°F10.7°C 49.8°F9.9°C 95% 6.0 mph SW9.7 kmh SW 4.0 mph6.4 kmh 29.95 in1014.2 mb 0.00 in0.0 mm 0.00 in/hr0.0 mm/hr 0.06 in1.5 mm
05:52 AM 51.3°F10.7°C 49.8°F9.9°C 95% 4.0 mph SW6.4 kmh SW 4.0 mph6.4 kmh 29.95 in1014.2 mb 0.00 in0.0 mm 0.00 in/hr0.0 mm/hr 0.06 in1.5 mm
05:47 AM 51.3°F10.7°C 49.8°F9.9°C 95% 4.0 mph WSW6.4 kmh WSW 4.9 mph7.9 kmh 29.95 in1014.2 mb 0.00 in0.0 mm 0.00 in/hr0.0 mm/hr 0.06 in1.5 mm
05:42 AM 51.3°F10.7°C 49.8°F9.9°C 95% 4.9 mph SSW7.9 kmh SSW 2.0 mph3.2 kmh 29.95 in1014.2 mb 0.00 in0.0 mm 0.00 in/hr0.0 mm/hr 0.06 in1.5 mm
05:37 AM 51.3°F10.7°C 49.8°F9.9°C 95% 2.9 mph SW4.7 kmh SW 4.0 mph6.4 kmh 29.94 in1013.9 mb 0.00 in0.0 mm 0.00 in/hr0.0 mm/hr 0.06 in1.5 mm
05:32 AM 51.3°F10.7°C 49.8°F9.9°C 95% 2.0 mph WSW3.2 kmh WSW 8.1 mph13.0 kmh 29.94 in1013.9 mb 0.00 in0.0 mm 0.00 in/hr0.0 mm/hr 0.06 in1.5 mm
05:27 AM 51.1°F10.6°C 49.6°F9.8°C 95% 2.9 mph SW4.7 kmh SW 0.9 mph1.4 kmh 29.94 in1013.9 mb 0.00 in0.0 mm 0.00 in/hr0.0 mm/hr 0.06 in1.5 mm
05:22 AM 51.1°F10.6°C 49.6°F9.8°C 95% 2.9 mph WSW4.7 kmh WSW 4.9 mph7.9 kmh 29.94 in1013.9 mb 0.00 in0.0 mm 0.00 in/hr0.0 mm/hr 0.06 in1.5 mm
05:17 AM 51.1°F10.6°C 49.6°F9.8°C 95% 2.9 mph SW4.7 kmh SW 4.0 mph6.4 kmh 29.94 in1013.9 mb 0.00 in0.0 mm 0.00 in/hr0.0 mm/hr 0.06 in1.5 mm
05:12 AM 51.1°F10.6°C 49.6°F9.8°C 95% 2.9 mph SW4.7 kmh SW 2.9 mph4.7 kmh 29.94 in1013.9 mb 0.00 in0.0 mm 0.00 in/hr0.0 mm/hr 0.06 in1.5 mm
05:07 AM 50.9°F10.5°C 49.3°F9.6°C 94% 2.9 mph SSW4.7 kmh SSW 4.9 mph7.9 kmh 29.94 in1013.9 mb 0.00 in0.0 mm 0.00 in/hr0.0 mm/hr 0.06 in1.5 mm
05:02 AM 50.9°F10.5°C 49.3°F9.6°C 94% 2.9 mph SW4.7 kmh SW 4.0 mph6.4 kmh 29.94 in1013.9 mb 0.00 in0.0 mm 0.00 in/hr0.0 mm/hr 0.06 in1.5 mm
04:57 AM 50.7°F10.4°C 49.1°F9.5°C 94% 2.0 mph SW3.2 kmh SW 2.0 mph3.2 kmh 29.94 in1013.9 mb 0.00 in0.0 mm 0.00 in/hr0.0 mm/hr 0.06 in1.5 mm
04:52 AM 50.7°F10.4°C 49.1°F9.5°C 94% 2.0 mph SW3.2 kmh SW 2.0 mph3.2 kmh 29.94 in1013.9 mb 0.00 in0.0 mm 0.00 in/hr0.0 mm/hr 0.06 in1.5 mm
04:47 AM 50.7°F10.4°C 49.1°F9.5°C 94% 2.9 mph SW4.7 kmh SW 2.9 mph4.7 kmh 29.94 in1013.9 mb 0.00 in0.0 mm 0.00 in/hr0.0 mm/hr 0.06 in1.5 mm
04:42 AM 50.7°F10.4°C 49.1°F9.5°C 94% 2.9 mph WSW4.7 kmh WSW 2.9 mph4.7 kmh 29.94 in1013.9 mb 0.00 in0.0 mm 0.00 in/hr0.0 mm/hr 0.06 in1.5 mm
04:37 AM 50.7°F10.4°C 49.1°F9.5°C 94% 2.9 mph WSW4.7 kmh WSW 2.9 mph4.7 kmh 29.95 in1014.2 mb 0.00 in0.0 mm 0.00 in/hr0.0 mm/hr 0.06 in1.5 mm
04:32 AM 50.7°F10.4°C 49.1°F9.5°C 94% 2.9 mph SW4.7 kmh SW 2.9 mph4.7 kmh 29.95 in1014.2 mb 0.00 in0.0 mm 0.00 in/hr0.0 mm/hr 0.06 in1.5 mm
04:27 AM 50.7°F10.4°C 49.1°F9.5°C 94% 2.9 mph SW4.7 kmh SW 4.0 mph6.4 kmh 29.94 in1013.9 mb 0.00 in0.0 mm 0.00 in/hr0.0 mm/hr 0.06 in1.5 mm
04:22 AM 50.7°F10.4°C 49.1°F9.5°C 94% 2.9 mph WSW4.7 kmh WSW 2.9 mph4.7 kmh 29.95 in1014.2 mb 0.00 in0.0 mm 0.00 in/hr0.0 mm/hr 0.06 in1.5 mm
04:17 AM 50.7°F10.4°C 49.1°F9.5°C 94% 2.0 mph WSW3.2 kmh WSW 4.0 mph6.4 kmh 29.95 in1014.2 mb 0.00 in0.0 mm 0.00 in/hr0.0 mm/hr 0.06 in1.5 mm
04:12 AM 50.7°F10.4°C 49.1°F9.5°C 94% 4.0 mph SSW6.4 kmh SSW -- 29.94 in1013.9 mb 0.00 in0.0 mm 0.00 in/hr0.0 mm/hr 0.06 in1.5 mm
04:07 AM 50.7°F10.4°C 49.1°F9.5°C 94% 4.0 mph SSW6.4 kmh SSW 2.9 mph4.7 kmh 29.95 in1014.2 mb 0.00 in0.0 mm 0.00 in/hr0.0 mm/hr 0.06 in1.5 mm
04:02 AM 50.7°F10.4°C 49.1°F9.5°C 94% 4.0 mph S6.4 kmh S 4.9 mph7.9 kmh 29.95 in1014.2 mb 0.00 in0.0 mm 0.00 in/hr0.0 mm/hr 0.06 in1.5 mm
03:57 AM 50.5°F10.3°C 48.9°F9.4°C 94% 2.9 mph WSW4.7 kmh WSW 2.9 mph4.7 kmh 29.95 in1014.2 mb 0.00 in0.0 mm 0.00 in/hr0.0 mm/hr 0.06 in1.5 mm
03:52 AM 50.5°F10.3°C 48.9°F9.4°C 94% 2.9 mph SW4.7 kmh SW 4.9 mph7.9 kmh 29.95 in1014.2 mb 0.00 in0.0 mm 0.00 in/hr0.0 mm/hr 0.06 in1.5 mm
03:47 AM 50.5°F10.3°C 48.9°F9.4°C 94% 2.9 mph SW4.7 kmh SW 0.9 mph1.4 kmh 29.94 in1013.9 mb 0.00 in0.0 mm 0.00 in/hr0.0 mm/hr 0.06 in1.5 mm
03:42 AM 50.5°F10.3°C 48.9°F9.4°C 94% 4.0 mph SW6.4 kmh SW 2.9 mph4.7 kmh 29.95 in1014.2 mb 0.00 in0.0 mm 0.00 in/hr0.0 mm/hr 0.06 in1.5 mm
03:37 AM 50.5°F10.3°C 48.9°F9.4°C 94% 4.0 mph SSW6.4 kmh SSW 4.0 mph6.4 kmh 29.95 in1014.2 mb 0.00 in0.0 mm 0.00 in/hr0.0 mm/hr 0.06 in1.5 mm
03:32 AM 50.7°F10.4°C 49.1°F9.5°C 94% 2.9 mph SSW4.7 kmh SSW 2.9 mph4.7 kmh 29.94 in1013.9 mb 0.00 in0.0 mm 0.00 in/hr0.0 mm/hr 0.06 in1.5 mm
03:27 AM 50.7°F10.4°C 49.1°F9.5°C 94% 2.9 mph SSW4.7 kmh SSW 4.0 mph6.4 kmh 29.95 in1014.2 mb 0.00 in0.0 mm 0.00 in/hr0.0 mm/hr 0.06 in1.5 mm
03:22 AM 50.7°F10.4°C 49.1°F9.5°C 94% 2.9 mph SW4.7 kmh SW 2.0 mph3.2 kmh 29.95 in1014.2 mb 0.00 in0.0 mm 0.00 in/hr0.0 mm/hr 0.05 in1.3 mm
03:17 AM 50.7°F10.4°C 49.1°F9.5°C 94% 2.9 mph SSW4.7 kmh SSW 4.9 mph7.9 kmh 29.95 in1014.2 mb 0.00 in0.0 mm 0.00 in/hr0.0 mm/hr 0.05 in1.3 mm
03:12 AM 50.7°F10.4°C 49.1°F9.5°C 94% 2.9 mph SSW4.7 kmh SSW 2.0 mph3.2 kmh 29.95 in1014.2 mb 0.00 in0.0 mm 0.00 in/hr0.0 mm/hr 0.05 in1.3 mm
03:07 AM 50.7°F10.4°C 48.7°F9.3°C 93% 2.9 mph SW4.7 kmh SW 2.0 mph3.2 kmh 29.95 in1014.2 mb 0.00 in0.0 mm 0.00 in/hr0.0 mm/hr 0.04 in1.0 mm
03:02 AM 50.7°F10.4°C 48.7°F9.3°C 93% 2.9 mph SSW4.7 kmh SSW 2.9 mph4.7 kmh 29.96 in1014.6 mb 0.00 in0.0 mm 0.00 in/hr0.0 mm/hr 0.04 in1.0 mm
02:57 AM 50.7°F10.4°C 48.7°F9.3°C 93% 2.9 mph WSW4.7 kmh WSW 6.9 mph11.1 kmh 29.96 in1014.6 mb 0.00 in0.0 mm 0.00 in/hr0.0 mm/hr 0.04 in1.0 mm
02:52 AM 50.7°F10.4°C 48.7°F9.3°C 93% 4.0 mph SW6.4 kmh SW 2.0 mph3.2 kmh 29.96 in1014.6 mb 0.00 in0.0 mm 0.00 in/hr0.0 mm/hr 0.04 in1.0 mm
02:47 AM 50.7°F10.4°C 48.7°F9.3°C 93% 2.9 mph SSW4.7 kmh SSW 2.9 mph4.7 kmh 29.96 in1014.6 mb 0.00 in0.0 mm 0.00 in/hr0.0 mm/hr 0.04 in1.0 mm
02:42 AM 50.7°F10.4°C 48.7°F9.3°C 93% 2.9 mph SSW4.7 kmh SSW 6.0 mph9.7 kmh 29.96 in1014.6 mb 0.00 in0.0 mm 0.00 in/hr0.0 mm/hr 0.04 in1.0 mm
02:37 AM 50.7°F10.4°C 48.7°F9.3°C 93% 2.9 mph SSW4.7 kmh SSW 2.0 mph3.2 kmh 29.96 in1014.6 mb 0.00 in0.0 mm 0.00 in/hr0.0 mm/hr 0.04 in1.0 mm
02:32 AM 50.5°F10.3°C 48.6°F9.2°C 93% 2.9 mph SW4.7 kmh SW 2.0 mph3.2 kmh 29.96 in1014.6 mb 0.00 in0.0 mm 0.00 in/hr0.0 mm/hr 0.04 in1.0 mm
02:27 AM 50.5°F10.3°C 48.6°F9.2°C 93% 2.9 mph WSW4.7 kmh WSW 2.0 mph3.2 kmh 29.96 in1014.6 mb 0.00 in0.0 mm 0.00 in/hr0.0 mm/hr 0.04 in1.0 mm
02:22 AM 50.5°F10.3°C 48.6°F9.2°C 93% 2.9 mph SW4.7 kmh SW 4.9 mph7.9 kmh 29.96 in1014.6 mb 0.00 in0.0 mm 0.00 in/hr0.0 mm/hr 0.04 in1.0 mm
02:17 AM 50.5°F10.3°C 48.6°F9.2°C 93% 2.9 mph SW4.7 kmh SW 2.9 mph4.7 kmh 29.96 in1014.6 mb 0.00 in0.0 mm 0.00 in/hr0.0 mm/hr 0.04 in1.0 mm
02:12 AM 50.5°F10.3°C 48.6°F9.2°C 93% 2.9 mph WSW4.7 kmh WSW 4.0 mph6.4 kmh 29.96 in1014.6 mb 0.00 in0.0 mm 0.00 in/hr0.0 mm/hr 0.04 in1.0 mm
02:07 AM 50.4°F10.2°C 48.4°F9.1°C 93% 2.9 mph SW4.7 kmh SW 0.9 mph1.4 kmh 29.96 in1014.6 mb 0.00 in0.0 mm 0.00 in/hr0.0 mm/hr 0.04 in1.0 mm
02:02 AM 50.4°F10.2°C 48.4°F9.1°C 93% 4.0 mph SSW6.4 kmh SSW 2.9 mph4.7 kmh 29.97 in1014.9 mb 0.00 in0.0 mm 0.00 in/hr0.0 mm/hr 0.04 in1.0 mm
01:57 AM 50.4°F10.2°C 48.4°F9.1°C 93% 2.9 mph SW4.7 kmh SW 2.0 mph3.2 kmh 29.97 in1014.9 mb 0.00 in0.0 mm 0.00 in/hr0.0 mm/hr 0.04 in1.0 mm
01:52 AM 50.2°F10.1°C 48.2°F9.0°C 93% 4.0 mph SW6.4 kmh SW 2.9 mph4.7 kmh 29.97 in1014.9 mb 0.00 in0.0 mm 0.00 in/hr0.0 mm/hr 0.04 in1.0 mm
01:47 AM 50.2°F10.1°C 48.2°F9.0°C 93% 2.9 mph S4.7 kmh S 4.0 mph6.4 kmh 29.97 in1014.9 mb 0.00 in0.0 mm 0.00 in/hr0.0 mm/hr 0.04 in1.0 mm
01:42 AM 50.2°F10.1°C 48.2°F9.0°C 93% 2.9 mph S4.7 kmh S 6.9 mph11.1 kmh 29.97 in1014.9 mb 0.00 in0.0 mm 0.00 in/hr0.0 mm/hr 0.04 in1.0 mm
01:37 AM 50.2°F10.1°C 48.2°F9.0°C 93% 2.9 mph SW4.7 kmh SW 2.9 mph4.7 kmh 29.98 in1015.2 mb 0.00 in0.0 mm 0.00 in/hr0.0 mm/hr 0.03 in0.8 mm
01:32 AM 50.2°F10.1°C 48.2°F9.0°C 93% 2.9 mph SSW4.7 kmh SSW 4.0 mph6.4 kmh 29.98 in1015.2 mb 0.00 in0.0 mm 0.00 in/hr0.0 mm/hr 0.03 in0.8 mm
01:27 AM 50.2°F10.1°C 48.2°F9.0°C 93% 2.9 mph SSW4.7 kmh SSW 2.0 mph3.2 kmh 29.98 in1015.2 mb 0.00 in0.0 mm 0.00 in/hr0.0 mm/hr 0.03 in0.8 mm
01:22 AM 50.2°F10.1°C 48.2°F9.0°C 93% 2.9 mph S4.7 kmh S 4.0 mph6.4 kmh 29.98 in1015.2 mb 0.00 in0.0 mm 0.00 in/hr0.0 mm/hr 0.03 in0.8 mm
01:17 AM 50.2°F10.1°C 48.2°F9.0°C 93% 2.9 mph S4.7 kmh S 0.9 mph1.4 kmh 29.98 in1015.2 mb 0.03 in0.8 mm 0.00 in/hr0.0 mm/hr 0.03 in0.8 mm
01:12 AM 50.4°F10.2°C 48.2°F9.0°C 92% 2.9 mph S4.7 kmh S 2.0 mph3.2 kmh 29.98 in1015.2 mb 0.04 in1.0 mm 0.00 in/hr0.0 mm/hr 0.03 in0.8 mm
01:07 AM 50.4°F10.2°C 48.2°F9.0°C 92% 2.9 mph S4.7 kmh S 4.0 mph6.4 kmh 29.99 in1015.6 mb 0.04 in1.0 mm 0.00 in/hr0.0 mm/hr 0.03 in0.8 mm
01:02 AM 50.4°F10.2°C 48.2°F9.0°C 92% 2.0 mph SW3.2 kmh SW 2.0 mph3.2 kmh 29.99 in1015.6 mb 0.04 in1.0 mm 0.01 in/hr0.3 mm/hr 0.02 in0.5 mm
12:57 AM 50.5°F10.3°C 48.4°F9.1°C 92% 0.9 mph SSW1.4 kmh SSW 0.9 mph1.4 kmh 29.99 in1015.6 mb 0.03 in0.8 mm 0.00 in/hr0.0 mm/hr 0.02 in0.5 mm
12:52 AM 50.5°F10.3°C 48.4°F9.1°C 92% 0.9 mph SW1.4 kmh SW 0.9 mph1.4 kmh 29.99 in1015.6 mb 0.03 in0.8 mm 0.36 in/hr9.1 mm/hr 0.02 in0.5 mm
12:47 AM 50.5°F10.3°C 48.0°F8.9°C 91% 0.9 mph SW1.4 kmh SW 2.0 mph3.2 kmh 29.99 in1015.6 mb 0.00 in0.0 mm 0.00 in/hr0.0 mm/hr 0.02 in0.5 mm
12:42 AM 50.7°F10.4°C 48.2°F9.0°C 91% 0.9 mph W1.4 kmh W -- 29.99 in1015.6 mb 0.00 in0.0 mm 0.00 in/hr0.0 mm/hr 0.02 in0.5 mm
12:37 AM 50.7°F10.4°C 48.2°F9.0°C 91% 0.9 mph W1.4 kmh W 0.9 mph1.4 kmh 29.99 in1015.6 mb 0.00 in0.0 mm 0.00 in/hr0.0 mm/hr 0.02 in0.5 mm
12:32 AM 50.7°F10.4°C 47.8°F8.8°C 90% 0.9 mph WSW1.4 kmh WSW 0.9 mph1.4 kmh 30.00 in1015.9 mb 0.00 in0.0 mm 0.00 in/hr0.0 mm/hr 0.01 in0.3 mm
12:27 AM 50.9°F10.5°C 48.0°F8.9°C 90% 0.9 mph WSW1.4 kmh WSW 0.9 mph1.4 kmh 29.99 in1015.6 mb 0.00 in0.0 mm 0.00 in/hr0.0 mm/hr 0.01 in0.3 mm
12:22 AM 51.1°F10.6°C 48.0°F8.9°C 89% 0.9 mph WSW1.4 kmh WSW 0.9 mph1.4 kmh 30.00 in1015.9 mb 0.03 in0.8 mm 0.00 in/hr0.0 mm/hr 0.01 in0.3 mm
12:17 AM 51.3°F10.7°C 48.2°F9.0°C 89% 0.9 mph WNW1.4 kmh WNW -- 29.99 in1015.6 mb 0.05 in1.3 mm 0.00 in/hr0.0 mm/hr 0.01 in0.3 mm
12:12 AM 51.4°F10.8°C 48.0°F8.9°C 88% 0.9 mph WNW1.4 kmh WNW -- 30.00 in1015.9 mb 0.06 in1.5 mm 0.00 in/hr0.0 mm/hr 0.01 in0.3 mm
12:07 AM 51.6°F10.9°C 47.8°F8.8°C 87% 2.0 mph NW3.2 kmh NW 2.0 mph3.2 kmh 30.00 in1015.9 mb 0.06 in1.5 mm 0.12 in/hr3.0 mm/hr 0.06 in1.5 mm
12:02 AM 52.0°F11.1°C 47.8°F8.8°C 86% 4.0 mph W6.4 kmh W 0.9 mph1.4 kmh 30.00 in1015.9 mb 0.05 in1.3 mm 1.50 in/hr38.1 mm/hr 0.02 in0.5 mm